Clare, Illinois
Current Conditions -  °F | °C
As of 3:55 AM on Monday 22 Dec 2014 (Local Time) from KDKB Reporting Station
Haze Haze  
Wind Chill: 21°   Ceiling: 4600
Heat Index: 31°   Visibility: 5mi
Dew Point: 28°   Wind: 12mph
Humidity: 90%   Direction: 140°SE
Pressure: 29.93"   Gusts: NA
Location:  42.02°N, 88.83°W
Report Text: KDKB 220955Z AUTO 14010KT 5SM BR OVC046 M01/M02 A2993 RMK AO2 T10071022
Loading
Personal Weather Stations






























Interactive Weather Map New forecast layout! Learn more

10-Day Weather Forecast

Advertisements
Track Severe Weather on mobile